sensor_id;sensor_type;location;lat;lon;timestamp;P1;durP1;ratioP1;P2;durP2;ratioP2
37221;SDS011;23119;51.842;-2.230;2023-06-24T00:02:21;4.40;;;1.48;;
37221;SDS011;23119;51.842;-2.230;2023-06-24T00:04:51;2.88;;;1.35;;
37221;SDS011;23119;51.842;-2.230;2023-06-24T00:07:19;3.97;;;1.70;;
37221;SDS011;23119;51.842;-2.230;2023-06-24T00:09:47;5.32;;;1.70;;
37221;SDS011;23119;51.842;-2.230;2023-06-24T00:12:16;3.38;;;1.67;;
37221;SDS011;23119;51.842;-2.230;2023-06-24T00:14:46;4.90;;;1.77;;
37221;SDS011;23119;51.842;-2.230;2023-06-24T00:17:13;4.80;;;2.08;;
37221;SDS011;23119;51.842;-2.230;2023-06-24T00:19:38;7.07;;;1.90;;
37221;SDS011;23119;51.842;-2.230;2023-06-24T00:22:04;4.07;;;1.33;;
37221;SDS011;23119;51.842;-2.230;2023-06-24T00:24:30;8.70;;;2.33;;
37221;SDS011;23119;51.842;-2.230;2023-06-24T00:26:56;6.10;;;2.00;;
37221;SDS011;23119;51.842;-2.230;2023-06-24T00:29:22;6.00;;;1.92;;
37221;SDS011;23119;51.842;-2.230;2023-06-24T00:31:47;6.35;;;2.25;;
37221;SDS011;23119;51.842;-2.230;2023-06-24T00:34:15;7.35;;;2.25;;
37221;SDS011;23119;51.842;-2.230;2023-06-24T00:36:41;7.18;;;2.60;;
37221;SDS011;23119;51.842;-2.230;2023-06-24T00:39:09;5.57;;;2.65;;
37221;SDS011;23119;51.842;-2.230;2023-06-24T00:41:35;4.18;;;2.40;;
37221;SDS011;23119;51.842;-2.230;2023-06-24T00:44:01;7.78;;;2.72;;
37221;SDS011;23119;51.842;-2.230;2023-06-24T00:46:27;5.65;;;2.38;;
37221;SDS011;23119;51.842;-2.230;2023-06-24T00:48:58;6.53;;;2.15;;
37221;SDS011;23119;51.842;-2.230;2023-06-24T00:51:27;5.00;;;2.47;;
37221;SDS011;23119;51.842;-2.230;2023-06-24T00:53:56;6.20;;;2.50;;
37221;SDS011;23119;51.842;-2.230;2023-06-24T00:56:25;9.40;;;2.72;;
37221;SDS011;23119;51.842;-2.230;2023-06-24T00:58:54;4.53;;;2.55;;
37221;SDS011;23119;51.842;-2.230;2023-06-24T01:01:27;6.20;;;2.08;;
37221;SDS011;23119;51.842;-2.230;2023-06-24T01:03:58;6.35;;;2.15;;
37221;SDS011;23119;51.842;-2.230;2023-06-24T01:06:25;5.55;;;2.30;;
37221;SDS011;23119;51.842;-2.230;2023-06-24T01:08:54;9.02;;;2.33;;
37221;SDS011;23119;51.842;-2.230;2023-06-24T01:11:22;5.97;;;2.38;;
37221;SDS011;23119;51.842;-2.230;2023-06-24T01:13:49;7.50;;;2.30;;
37221;SDS011;23119;51.842;-2.230;2023-06-24T01:16:19;6.18;;;2.40;;
37221;SDS011;23119;51.842;-2.230;2023-06-24T01:18:59;4.15;;;2.00;;
37221;SDS011;23119;51.842;-2.230;2023-06-24T01:21:56;6.97;;;2.40;;
37221;SDS011;23119;51.842;-2.230;2023-06-24T01:33:36;2.90;;;1.80;;
37221;SDS011;23119;51.842;-2.230;2023-06-24T01:36:26;5.43;;;2.22;;
37221;SDS011;23119;51.842;-2.230;2023-06-24T01:39:02;5.88;;;2.53;;
37221;SDS011;23119;51.842;-2.230;2023-06-24T01:41:40;6.22;;;2.15;;
37221;SDS011;23119;51.842;-2.230;2023-06-24T01:44:09;5.25;;;2.67;;
37221;SDS011;23119;51.842;-2.230;2023-06-24T01:46:37;5.15;;;2.20;;
37221;SDS011;23119;51.842;-2.230;2023-06-24T01:49:07;7.35;;;2.63;;
37221;SDS011;23119;51.842;-2.230;2023-06-24T01:51:35;5.03;;;2.20;;
37221;SDS011;23119;51.842;-2.230;2023-06-24T01:54:02;3.85;;;1.95;;
37221;SDS011;23119;51.842;-2.230;2023-06-24T01:56:31;5.15;;;2.22;;
37221;SDS011;23119;51.842;-2.230;2023-06-24T01:59:03;5.70;;;2.50;;
37221;SDS011;23119;51.842;-2.230;2023-06-24T02:01:32;4.72;;;1.83;;
37221;SDS011;23119;51.842;-2.230;2023-06-24T02:04:01;6.22;;;2.13;;
37221;SDS011;23119;51.842;-2.230;2023-06-24T02:06:28;4.93;;;1.67;;
37221;SDS011;23119;51.842;-2.230;2023-06-24T02:08:55;4.72;;;2.17;;
37221;SDS011;23119;51.842;-2.230;2023-06-24T02:11:25;4.72;;;1.90;;
37221;SDS011;23119;51.842;-2.230;2023-06-24T02:13:55;5.20;;;1.77;;
37221;SDS011;23119;51.842;-2.230;2023-06-24T02:16:23;4.90;;;2.03;;
37221;SDS011;23119;51.842;-2.230;2023-06-24T02:18:51;6.10;;;1.98;;
37221;SDS011;23119;51.842;-2.230;2023-06-24T02:21:18;5.15;;;2.10;;
37221;SDS011;23119;51.842;-2.230;2023-06-24T02:23:47;4.25;;;1.50;;
37221;SDS011;23119;51.842;-2.230;2023-06-24T02:26:16;4.00;;;1.70;;
37221;SDS011;23119;51.842;-2.230;2023-06-24T02:28:46;3.97;;;2.00;;
37221;SDS011;23119;51.842;-2.230;2023-06-24T02:31:13;4.78;;;1.85;;
37221;SDS011;23119;51.842;-2.230;2023-06-24T02:33:40;6.18;;;1.95;;
37221;SDS011;23119;51.842;-2.230;2023-06-24T02:36:09;3.40;;;2.13;;
37221;SDS011;23119;51.842;-2.230;2023-06-24T02:38:36;4.68;;;1.50;;
37221;SDS011;23119;51.842;-2.230;2023-06-24T02:41:01;4.55;;;1.75;;
37221;SDS011;23119;51.842;-2.230;2023-06-24T02:43:31;3.53;;;1.50;;
37221;SDS011;23119;51.842;-2.230;2023-06-24T02:45:58;3.63;;;1.65;;
37221;SDS011;23119;51.842;-2.230;2023-06-24T02:48:36;5.28;;;2.08;;
37221;SDS011;23119;51.842;-2.230;2023-06-24T02:51:07;4.82;;;1.98;;
37221;SDS011;23119;51.842;-2.230;2023-06-24T02:53:35;3.65;;;1.75;;
37221;SDS011;23119;51.842;-2.230;2023-06-24T02:56:04;5.30;;;2.05;;
37221;SDS011;23119;51.842;-2.230;2023-06-24T02:58:31;3.58;;;1.77;;
37221;SDS011;23119;51.842;-2.230;2023-06-24T03:00:59;4.80;;;2.35;;
37221;SDS011;23119;51.842;-2.230;2023-06-24T03:03:25;4.03;;;1.58;;
37221;SDS011;23119;51.842;-2.230;2023-06-24T03:05:53;3.83;;;1.70;;
37221;SDS011;23119;51.842;-2.230;2023-06-24T03:08:24;6.78;;;1.92;;
37221;SDS011;23119;51.842;-2.230;2023-06-24T03:10:54;6.18;;;1.92;;
37221;SDS011;23119;51.842;-2.230;2023-06-24T03:13:21;4.50;;;1.92;;
37221;SDS011;23119;51.842;-2.230;2023-06-24T03:15:47;4.90;;;1.80;;
37221;SDS011;23119;51.842;-2.230;2023-06-24T03:21:06;3.92;;;1.92;;
37221;SDS011;23119;51.842;-2.230;2023-06-24T03:30:03;4.60;;;1.75;;
37221;SDS011;23119;51.842;-2.230;2023-06-24T03:32:30;4.53;;;2.58;;
37221;SDS011;23119;51.842;-2.230;2023-06-24T03:34:55;6.18;;;1.90;;
37221;SDS011;23119;51.842;-2.230;2023-06-24T03:37:21;9.23;;;2.42;;
37221;SDS011;23119;51.842;-2.230;2023-06-24T03:39:47;4.43;;;1.80;;
37221;SDS011;23119;51.842;-2.230;2023-06-24T03:42:15;9.10;;;2.22;;
37221;SDS011;23119;51.842;-2.230;2023-06-24T03:44:45;4.93;;;1.83;;
37221;SDS011;23119;51.842;-2.230;2023-06-24T03:47:11;5.85;;;2.15;;
37221;SDS011;23119;51.842;-2.230;2023-06-24T03:49:37;5.63;;;2.00;;
37221;SDS011;23119;51.842;-2.230;2023-06-24T03:52:03;5.70;;;2.13;;
37221;SDS011;23119;51.842;-2.230;2023-06-24T03:54:49;5.72;;;2.60;;
37221;SDS011;23119;51.842;-2.230;2023-06-24T03:57:15;5.18;;;2.22;;
37221;SDS011;23119;51.842;-2.230;2023-06-24T03:59:41;8.55;;;2.70;;
37221;SDS011;23119;51.842;-2.230;2023-06-24T04:02:06;6.90;;;2.40;;
37221;SDS011;23119;51.842;-2.230;2023-06-24T04:04:35;3.97;;;1.70;;
37221;SDS011;23119;51.842;-2.230;2023-06-24T04:07:01;7.18;;;2.45;;
37221;SDS011;23119;51.842;-2.230;2023-06-24T04:09:33;7.72;;;2.97;;
37221;SDS011;23119;51.842;-2.230;2023-06-24T04:11:59;5.93;;;2.42;;
37221;SDS011;23119;51.842;-2.230;2023-06-24T04:14:28;5.60;;;2.70;;
37221;SDS011;23119;51.842;-2.230;2023-06-24T04:16:54;5.85;;;2.40;;
37221;SDS011;23119;51.842;-2.230;2023-06-24T04:19:19;6.95;;;1.92;;
37221;SDS011;23119;51.842;-2.230;2023-06-24T04:21:45;5.18;;;1.88;;
37221;SDS011;23119;51.842;-2.230;2023-06-24T04:24:11;4.45;;;2.33;;
37221;SDS011;23119;51.842;-2.230;2023-06-24T04:26:37;7.80;;;2.13;;
37221;SDS011;23119;51.842;-2.230;2023-06-24T04:29:02;5.50;;;2.20;;
37221;SDS011;23119;51.842;-2.230;2023-06-24T04:31:28;5.00;;;1.92;;
37221;SDS011;23119;51.842;-2.230;2023-06-24T04:33:54;5.38;;;2.60;;
37221;SDS011;23119;51.842;-2.230;2023-06-24T04:36:19;5.38;;;2.40;;
37221;SDS011;23119;51.842;-2.230;2023-06-24T04:38:47;7.35;;;2.63;;
37221;SDS011;23119;51.842;-2.230;2023-06-24T04:41:13;6.55;;;2.38;;
37221;SDS011;23119;51.842;-2.230;2023-06-24T04:43:41;7.03;;;2.60;;
37221;SDS011;23119;51.842;-2.230;2023-06-24T04:46:10;5.00;;;2.15;;
37221;SDS011;23119;51.842;-2.230;2023-06-24T04:48:38;5.15;;;2.58;;
37221;SDS011;23119;51.842;-2.230;2023-06-24T04:51:03;6.00;;;2.60;;
37221;SDS011;23119;51.842;-2.230;2023-06-24T04:53:29;4.13;;;2.20;;
37221;SDS011;23119;51.842;-2.230;2023-06-24T04:55:55;8.02;;;2.42;;
37221;SDS011;23119;51.842;-2.230;2023-06-24T04:58:21;4.55;;;2.65;;
37221;SDS011;23119;51.842;-2.230;2023-06-24T05:00:46;5.43;;;2.33;;
37221;SDS011;23119;51.842;-2.230;2023-06-24T05:03:12;5.32;;;2.00;;
37221;SDS011;23119;51.842;-2.230;2023-06-24T05:05:38;5.82;;;2.15;;
37221;SDS011;23119;51.842;-2.230;2023-06-24T05:08:04;6.10;;;2.50;;
37221;SDS011;23119;51.842;-2.230;2023-06-24T05:10:30;6.18;;;2.40;;
37221;SDS011;23119;51.842;-2.230;2023-06-24T05:12:55;5.05;;;2.20;;
37221;SDS011;23119;51.842;-2.230;2023-06-24T05:15:21;4.50;;;1.98;;
37221;SDS011;23119;51.842;-2.230;2023-06-24T05:17:47;4.05;;;1.80;;
37221;SDS011;23119;51.842;-2.230;2023-06-24T05:20:12;3.28;;;1.70;;
37221;SDS011;23119;51.842;-2.230;2023-06-24T05:22:40;5.13;;;1.75;;
37221;SDS011;23119;51.842;-2.230;2023-06-24T05:25:11;6.13;;;1.80;;
37221;SDS011;23119;51.842;-2.230;2023-06-24T05:27:39;4.20;;;1.70;;
37221;SDS011;23119;51.842;-2.230;2023-06-24T05:30:05;4.72;;;1.73;;
37221;SDS011;23119;51.842;-2.230;2023-06-24T05:32:31;4.65;;;1.88;;
37221;SDS011;23119;51.842;-2.230;2023-06-24T05:34:57;5.40;;;1.92;;
37221;SDS011;23119;51.842;-2.230;2023-06-24T05:37:22;3.55;;;1.83;;
37221;SDS011;23119;51.842;-2.230;2023-06-24T05:39:48;3.85;;;1.77;;
37221;SDS011;23119;51.842;-2.230;2023-06-24T05:42:14;4.65;;;1.80;;
37221;SDS011;23119;51.842;-2.230;2023-06-24T05:44:39;6.88;;;1.75;;
37221;SDS011;23119;51.842;-2.230;2023-06-24T05:47:05;3.38;;;1.65;;
37221;SDS011;23119;51.842;-2.230;2023-06-24T05:52:36;5.88;;;2.00;;
37221;SDS011;23119;51.842;-2.230;2023-06-24T05:55:02;4.13;;;1.75;;
37221;SDS011;23119;51.842;-2.230;2023-06-24T05:57:27;3.92;;;1.90;;
37221;SDS011;23119;51.842;-2.230;2023-06-24T05:59:53;4.03;;;1.80;;
37221;SDS011;23119;51.842;-2.230;2023-06-24T06:02:19;4.85;;;1.77;;
37221;SDS011;23119;51.842;-2.230;2023-06-24T06:04:44;5.45;;;1.40;;
37221;SDS011;23119;51.842;-2.230;2023-06-24T06:07:10;3.05;;;1.38;;
37221;SDS011;23119;51.842;-2.230;2023-06-24T06:09:36;5.10;;;1.48;;
37221;SDS011;23119;51.842;-2.230;2023-06-24T06:12:01;4.72;;;1.60;;
37221;SDS011;23119;51.842;-2.230;2023-06-24T06:14:30;4.07;;;1.60;;
37221;SDS011;23119;51.842;-2.230;2023-06-24T06:16:55;3.65;;;1.60;;
37221;SDS011;23119;51.842;-2.230;2023-06-24T06:19:21;4.05;;;1.27;;
37221;SDS011;23119;51.842;-2.230;2023-06-24T06:21:48;5.07;;;1.77;;
37221;SDS011;23119;51.842;-2.230;2023-06-24T06:24:14;3.17;;;1.58;;
37221;SDS011;23119;51.842;-2.230;2023-06-24T06:26:43;6.10;;;1.90;;
37221;SDS011;23119;51.842;-2.230;2023-06-24T06:29:17;6.00;;;1.73;;
37221;SDS011;23119;51.842;-2.230;2023-06-24T06:31:42;3.58;;;1.88;;
37221;SDS011;23119;51.842;-2.230;2023-06-24T06:34:08;4.22;;;1.88;;
37221;SDS011;23119;51.842;-2.230;2023-06-24T06:36:38;5.00;;;1.55;;
37221;SDS011;23119;51.842;-2.230;2023-06-24T06:39:06;3.58;;;1.60;;
37221;SDS011;23119;51.842;-2.230;2023-06-24T06:41:35;2.90;;;1.77;;
37221;SDS011;23119;51.842;-2.230;2023-06-24T06:44:00;2.53;;;1.55;;
37221;SDS011;23119;51.842;-2.230;2023-06-24T06:46:27;5.90;;;1.70;;
37221;SDS011;23119;51.842;-2.230;2023-06-24T06:48:52;3.13;;;1.77;;
37221;SDS011;23119;51.842;-2.230;2023-06-24T06:51:21;4.40;;;1.92;;
37221;SDS011;23119;51.842;-2.230;2023-06-24T06:53:49;7.07;;;1.80;;
37221;SDS011;23119;51.842;-2.230;2023-06-24T06:56:18;4.32;;;1.70;;
37221;SDS011;23119;51.842;-2.230;2023-06-24T06:58:48;3.63;;;1.98;;
37221;SDS011;23119;51.842;-2.230;2023-06-24T07:01:14;3.85;;;1.67;;
37221;SDS011;23119;51.842;-2.230;2023-06-24T07:03:43;5.18;;;1.63;;
37221;SDS011;23119;51.842;-2.230;2023-06-24T07:06:09;6.28;;;1.77;;
37221;SDS011;23119;51.842;-2.230;2023-06-24T07:08:47;7.03;;;2.10;;
37221;SDS011;23119;51.842;-2.230;2023-06-24T07:11:13;5.78;;;1.95;;
37221;SDS011;23119;51.842;-2.230;2023-06-24T07:13:41;3.08;;;1.65;;
37221;SDS011;23119;51.842;-2.230;2023-06-24T07:16:12;2.75;;;1.48;;
37221;SDS011;23119;51.842;-2.230;2023-06-24T07:18:38;3.92;;;1.40;;
37221;SDS011;23119;51.842;-2.230;2023-06-24T07:21:03;6.38;;;2.42;;
37221;SDS011;23119;51.842;-2.230;2023-06-24T07:23:29;5.20;;;1.95;;
37221;SDS011;23119;51.842;-2.230;2023-06-24T07:26:00;3.25;;;1.63;;
37221;SDS011;23119;51.842;-2.230;2023-06-24T07:28:26;4.90;;;1.83;;
37221;SDS011;23119;51.842;-2.230;2023-06-24T07:30:54;5.55;;;1.80;;
37221;SDS011;23119;51.842;-2.230;2023-06-24T07:33:22;5.80;;;2.00;;
37221;SDS011;23119;51.842;-2.230;2023-06-24T07:35:47;3.30;;;2.20;;
37221;SDS011;23119;51.842;-2.230;2023-06-24T07:38:15;3.72;;;2.08;;
37221;SDS011;23119;51.842;-2.230;2023-06-24T07:40:44;4.55;;;1.90;;
37221;SDS011;23119;51.842;-2.230;2023-06-24T07:43:09;3.58;;;2.10;;
37221;SDS011;23119;51.842;-2.230;2023-06-24T07:45:35;6.78;;;2.25;;
37221;SDS011;23119;51.842;-2.230;2023-06-24T07:48:02;4.45;;;1.98;;
37221;SDS011;23119;51.842;-2.230;2023-06-24T07:50:35;4.28;;;2.25;;
37221;SDS011;23119;51.842;-2.230;2023-06-24T07:53:05;6.20;;;1.80;;
37221;SDS011;23119;51.842;-2.230;2023-06-24T07:55:31;5.00;;;2.00;;
37221;SDS011;23119;51.842;-2.230;2023-06-24T07:57:57;5.75;;;1.80;;
37221;SDS011;23119;51.842;-2.230;2023-06-24T08:00:27;5.07;;;1.85;;
37221;SDS011;23119;51.842;-2.230;2023-06-24T08:02:53;6.35;;;2.22;;
37221;SDS011;23119;51.842;-2.230;2023-06-24T08:05:21;6.57;;;2.10;;
37221;SDS011;23119;51.842;-2.230;2023-06-24T08:07:47;5.72;;;1.90;;
37221;SDS011;23119;51.842;-2.230;2023-06-24T08:10:12;3.63;;;1.77;;
37221;SDS011;23119;51.842;-2.230;2023-06-24T08:12:38;4.00;;;1.80;;
37221;SDS011;23119;51.842;-2.230;2023-06-24T08:15:06;6.20;;;1.88;;
37221;SDS011;23119;51.842;-2.230;2023-06-24T08:17:37;5.22;;;2.33;;
37221;SDS011;23119;51.842;-2.230;2023-06-24T08:20:06;4.38;;;1.80;;
37221;SDS011;23119;51.842;-2.230;2023-06-24T08:22:32;6.22;;;1.88;;
37221;SDS011;23119;51.842;-2.230;2023-06-24T08:24:58;3.83;;;1.85;;
37221;SDS011;23119;51.842;-2.230;2023-06-24T08:27:24;4.43;;;1.83;;
37221;SDS011;23119;51.842;-2.230;2023-06-24T08:29:52;5.65;;;2.13;;
37221;SDS011;23119;51.842;-2.230;2023-06-24T08:32:17;5.32;;;1.67;;
37221;SDS011;23119;51.842;-2.230;2023-06-24T08:34:43;3.20;;;1.70;;
37221;SDS011;23119;51.842;-2.230;2023-06-24T08:37:09;3.20;;;1.70;;
37221;SDS011;23119;51.842;-2.230;2023-06-24T08:39:37;4.00;;;1.85;;
37221;SDS011;23119;51.842;-2.230;2023-06-24T08:42:03;4.35;;;1.60;;
37221;SDS011;23119;51.842;-2.230;2023-06-24T08:44:32;4.40;;;1.42;;
37221;SDS011;23119;51.842;-2.230;2023-06-24T08:46:58;5.63;;;1.60;;
37221;SDS011;23119;51.842;-2.230;2023-06-24T08:51:51;5.40;;;1.98;;
37221;SDS011;23119;51.842;-2.230;2023-06-24T08:54:28;5.63;;;1.48;;
37221;SDS011;23119;51.842;-2.230;2023-06-24T08:56:55;4.93;;;1.35;;
37221;SDS011;23119;51.842;-2.230;2023-06-24T08:59:21;6.32;;;2.10;;
37221;SDS011;23119;51.842;-2.230;2023-06-24T09:01:47;6.90;;;1.73;;
37221;SDS011;23119;51.842;-2.230;2023-06-24T09:04:14;3.53;;;1.45;;
37221;SDS011;23119;51.842;-2.230;2023-06-24T09:06:43;6.13;;;1.95;;
37221;SDS011;23119;51.842;-2.230;2023-06-24T09:11:53;5.25;;;1.30;;
37221;SDS011;23119;51.842;-2.230;2023-06-24T09:14:21;4.70;;;1.85;;
37221;SDS011;23119;51.842;-2.230;2023-06-24T09:16:57;5.40;;;2.20;;
37221;SDS011;23119;51.842;-2.230;2023-06-24T09:19:26;4.50;;;1.90;;
37221;SDS011;23119;51.842;-2.230;2023-06-24T09:24:33;4.38;;;1.63;;
37221;SDS011;23119;51.842;-2.230;2023-06-24T09:26:59;4.97;;;1.50;;
37221;SDS011;23119;51.842;-2.230;2023-06-24T09:29:28;3.50;;;1.27;;
37221;SDS011;23119;51.842;-2.230;2023-06-24T09:31:56;3.58;;;1.40;;
37221;SDS011;23119;51.842;-2.230;2023-06-24T09:34:24;3.95;;;1.42;;
37221;SDS011;23119;51.842;-2.230;2023-06-24T09:36:57;2.90;;;1.60;;
37221;SDS011;23119;51.842;-2.230;2023-06-24T09:39:27;5.00;;;1.73;;
37221;SDS011;23119;51.842;-2.230;2023-06-24T09:42:03;7.38;;;2.03;;
37221;SDS011;23119;51.842;-2.230;2023-06-24T09:44:31;4.97;;;1.80;;
37221;SDS011;23119;51.842;-2.230;2023-06-24T09:46:57;2.83;;;1.10;;
37221;SDS011;23119;51.842;-2.230;2023-06-24T09:49:25;3.60;;;1.25;;
37221;SDS011;23119;51.842;-2.230;2023-06-24T09:51:55;5.28;;;1.40;;
37221;SDS011;23119;51.842;-2.230;2023-06-24T09:54:28;3.22;;;1.60;;
37221;SDS011;23119;51.842;-2.230;2023-06-24T09:56:59;3.78;;;1.30;;
37221;SDS011;23119;51.842;-2.230;2023-06-24T09:59:27;3.50;;;1.20;;
37221;SDS011;23119;51.842;-2.230;2023-06-24T10:01:57;19.98;;;2.15;;
37221;SDS011;23119;51.842;-2.230;2023-06-24T10:04:29;4.55;;;1.27;;
37221;SDS011;23119;51.842;-2.230;2023-06-24T10:06:56;2.80;;;1.30;;
37221;SDS011;23119;51.842;-2.230;2023-06-24T10:09:27;2.80;;;1.10;;
37221;SDS011;23119;51.842;-2.230;2023-06-24T10:11:53;3.40;;;1.10;;
37221;SDS011;23119;51.842;-2.230;2023-06-24T10:14:19;4.05;;;1.08;;
37221;SDS011;23119;51.842;-2.230;2023-06-24T10:16:44;3.40;;;1.00;;
37221;SDS011;23119;51.842;-2.230;2023-06-24T10:19:18;4.38;;;1.20;;
37221;SDS011;23119;51.842;-2.230;2023-06-24T10:21:53;4.07;;;1.00;;
37221;SDS011;23119;51.842;-2.230;2023-06-24T10:24:29;3.30;;;0.95;;
37221;SDS011;23119;51.842;-2.230;2023-06-24T10:27:04;3.85;;;1.17;;
37221;SDS011;23119;51.842;-2.230;2023-06-24T10:29:35;7.93;;;1.27;;
37221;SDS011;23119;51.842;-2.230;2023-06-24T10:32:02;4.60;;;1.08;;
37221;SDS011;23119;51.842;-2.230;2023-06-24T10:34:39;3.28;;;1.00;;
37221;SDS011;23119;51.842;-2.230;2023-06-24T10:37:14;2.75;;;1.00;;
37221;SDS011;23119;51.842;-2.230;2023-06-24T10:39:57;2.35;;;0.90;;
37221;SDS011;23119;51.842;-2.230;2023-06-24T10:42:43;3.30;;;0.80;;
37221;SDS011;23119;51.842;-2.230;2023-06-24T10:47:41;3.72;;;1.05;;
37221;SDS011;23119;51.842;-2.230;2023-06-24T10:50:11;3.95;;;0.90;;
37221;SDS011;23119;51.842;-2.230;2023-06-24T10:52:39;4.45;;;0.80;;
37221;SDS011;23119;51.842;-2.230;2023-06-24T10:55:09;2.85;;;1.08;;
37221;SDS011;23119;51.842;-2.230;2023-06-24T10:57:35;1.98;;;0.68;;
37221;SDS011;23119;51.842;-2.230;2023-06-24T11:00:06;2.17;;;0.80;;
37221;SDS011;23119;51.842;-2.230;2023-06-24T11:02:41;2.03;;;0.73;;
37221;SDS011;23119;51.842;-2.230;2023-06-24T11:05:07;2.95;;;0.95;;
37221;SDS011;23119;51.842;-2.230;2023-06-24T11:07:40;4.05;;;1.00;;
37221;SDS011;23119;51.842;-2.230;2023-06-24T11:10:07;3.42;;;0.80;;
37221;SDS011;23119;51.842;-2.230;2023-06-24T11:12:39;2.17;;;0.90;;
37221;SDS011;23119;51.842;-2.230;2023-06-24T11:15:09;2.70;;;0.88;;
37221;SDS011;23119;51.842;-2.230;2023-06-24T11:17:39;1.58;;;0.60;;
37221;SDS011;23119;51.842;-2.230;2023-06-24T11:20:12;2.38;;;0.80;;
37221;SDS011;23119;51.842;-2.230;2023-06-24T11:22:42;1.90;;;0.75;;
37221;SDS011;23119;51.842;-2.230;2023-06-24T11:25:18;3.55;;;0.70;;
37221;SDS011;23119;51.842;-2.230;2023-06-24T11:27:46;3.53;;;0.88;;
37221;SDS011;23119;51.842;-2.230;2023-06-24T11:30:15;2.60;;;0.70;;
37221;SDS011;23119;51.842;-2.230;2023-06-24T11:32:43;1.95;;;0.60;;
37221;SDS011;23119;51.842;-2.230;2023-06-24T11:35:10;2.05;;;0.70;;
37221;SDS011;23119;51.842;-2.230;2023-06-24T11:37:40;2.00;;;0.80;;
37221;SDS011;23119;51.842;-2.230;2023-06-24T11:40:10;2.38;;;0.80;;
37221;SDS011;23119;51.842;-2.230;2023-06-24T11:45:10;1.92;;;0.70;;
37221;SDS011;23119;51.842;-2.230;2023-06-24T11:47:38;1.55;;;0.70;;
37221;SDS011;23119;51.842;-2.230;2023-06-24T11:50:06;3.05;;;0.75;;
37221;SDS011;23119;51.842;-2.230;2023-06-24T11:55:18;3.60;;;0.70;;
37221;SDS011;23119;51.842;-2.230;2023-06-24T11:57:54;2.47;;;0.90;;
37221;SDS011;23119;51.842;-2.230;2023-06-24T12:00:38;2.10;;;0.50;;
37221;SDS011;23119;51.842;-2.230;2023-06-24T12:03:09;2.03;;;0.80;;
37221;SDS011;23119;51.842;-2.230;2023-06-24T12:05:35;2.20;;;0.60;;
37221;SDS011;23119;51.842;-2.230;2023-06-24T12:10:30;1.83;;;0.60;;
37221;SDS011;23119;51.842;-2.230;2023-06-24T12:13:02;1.48;;;0.50;;
37221;SDS011;23119;51.842;-2.230;2023-06-24T12:15:30;2.88;;;0.75;;
37221;SDS011;23119;51.842;-2.230;2023-06-24T12:17:56;2.28;;;0.60;;
37221;SDS011;23119;51.842;-2.230;2023-06-24T12:20:24;2.78;;;1.02;;
37221;SDS011;23119;51.842;-2.230;2023-06-24T12:22:50;1.98;;;0.57;;
37221;SDS011;23119;51.842;-2.230;2023-06-24T12:25:16;3.20;;;1.10;;
37221;SDS011;23119;51.842;-2.230;2023-06-24T12:27:42;2.33;;;0.80;;
37221;SDS011;23119;51.842;-2.230;2023-06-24T12:30:09;3.10;;;0.60;;
37221;SDS011;23119;51.842;-2.230;2023-06-24T12:32:38;2.38;;;0.70;;
37221;SDS011;23119;51.842;-2.230;2023-06-24T12:35:09;2.03;;;0.70;;
37221;SDS011;23119;51.842;-2.230;2023-06-24T12:37:35;2.20;;;0.70;;
37221;SDS011;23119;51.842;-2.230;2023-06-24T12:40:04;2.47;;;0.80;;
37221;SDS011;23119;51.842;-2.230;2023-06-24T12:42:31;2.42;;;0.60;;
37221;SDS011;23119;51.842;-2.230;2023-06-24T12:44:59;2.42;;;0.80;;
37221;SDS011;23119;51.842;-2.230;2023-06-24T12:47:25;2.05;;;0.70;;
37221;SDS011;23119;51.842;-2.230;2023-06-24T12:49:53;1.58;;;0.60;;
37221;SDS011;23119;51.842;-2.230;2023-06-24T12:52:19;1.58;;;0.57;;
37221;SDS011;23119;51.842;-2.230;2023-06-24T12:54:45;3.78;;;0.70;;
37221;SDS011;23119;51.842;-2.230;2023-06-24T12:57:15;1.60;;;0.50;;
37221;SDS011;23119;51.842;-2.230;2023-06-24T12:59:41;4.13;;;0.63;;
37221;SDS011;23119;51.842;-2.230;2023-06-24T13:02:07;2.47;;;0.60;;
37221;SDS011;23119;51.842;-2.230;2023-06-24T13:04:40;1.85;;;0.70;;
37221;SDS011;23119;51.842;-2.230;2023-06-24T13:07:08;2.35;;;0.50;;
37221;SDS011;23119;51.842;-2.230;2023-06-24T13:09:34;1.23;;;0.60;;
37221;SDS011;23119;51.842;-2.230;2023-06-24T13:12:00;3.05;;;0.60;;
37221;SDS011;23119;51.842;-2.230;2023-06-24T13:14:26;2.08;;;0.52;;
37221;SDS011;23119;51.842;-2.230;2023-06-24T13:16:53;2.20;;;0.45;;
37221;SDS011;23119;51.842;-2.230;2023-06-24T13:19:20;1.42;;;0.43;;
37221;SDS011;23119;51.842;-2.230;2023-06-24T13:21:54;1.05;;;0.50;;
37221;SDS011;23119;51.842;-2.230;2023-06-24T13:24:25;4.25;;;2.05;;
37221;SDS011;23119;51.842;-2.230;2023-06-24T13:26:51;1.98;;;0.50;;
37221;SDS011;23119;51.842;-2.230;2023-06-24T13:29:17;2.97;;;0.70;;
37221;SDS011;23119;51.842;-2.230;2023-06-24T13:31:46;1.30;;;0.60;;
37221;SDS011;23119;51.842;-2.230;2023-06-24T13:34:12;1.77;;;1.17;;
37221;SDS011;23119;51.842;-2.230;2023-06-24T13:36:39;2.38;;;0.65;;
37221;SDS011;23119;51.842;-2.230;2023-06-24T13:39:06;3.28;;;0.60;;
37221;SDS011;23119;51.842;-2.230;2023-06-24T13:41:46;2.47;;;0.82;;
37221;SDS011;23119;51.842;-2.230;2023-06-24T13:44:22;2.13;;;1.05;;
37221;SDS011;23119;51.842;-2.230;2023-06-24T13:46:48;2.45;;;0.80;;
37221;SDS011;23119;51.842;-2.230;2023-06-24T13:49:15;2.45;;;0.68;;
37221;SDS011;23119;51.842;-2.230;2023-06-24T13:51:43;4.00;;;3.33;;
37221;SDS011;23119;51.842;-2.230;2023-06-24T13:54:12;20.73;;;18.58;;
37221;SDS011;23119;51.842;-2.230;2023-06-24T13:56:38;30.20;;;27.25;;
37221;SDS011;23119;51.842;-2.230;2023-06-24T13:59:07;17.35;;;15.88;;
37221;SDS011;23119;51.842;-2.230;2023-06-24T14:01:33;12.95;;;11.65;;
37221;SDS011;23119;51.842;-2.230;2023-06-24T14:03:59;3.42;;;1.73;;
37221;SDS011;23119;51.842;-2.230;2023-06-24T14:06:25;4.45;;;2.95;;
37221;SDS011;23119;51.842;-2.230;2023-06-24T14:08:51;4.70;;;4.30;;
37221;SDS011;23119;51.842;-2.230;2023-06-24T14:11:18;4.57;;;1.70;;
37221;SDS011;23119;51.842;-2.230;2023-06-24T14:13:46;6.40;;;3.88;;
37221;SDS011;23119;51.842;-2.230;2023-06-24T14:16:15;2.03;;;0.77;;
37221;SDS011;23119;51.842;-2.230;2023-06-24T14:18:42;6.50;;;4.55;;
37221;SDS011;23119;51.842;-2.230;2023-06-24T14:21:08;6.63;;;4.53;;
37221;SDS011;23119;51.842;-2.230;2023-06-24T14:23:34;3.28;;;1.20;;
37221;SDS011;23119;51.842;-2.230;2023-06-24T14:26:00;4.82;;;1.33;;
37221;SDS011;23119;51.842;-2.230;2023-06-24T14:28:26;1.50;;;0.80;;
37221;SDS011;23119;51.842;-2.230;2023-06-24T14:30:52;1.92;;;0.60;;
37221;SDS011;23119;51.842;-2.230;2023-06-24T14:33:23;3.40;;;1.05;;
37221;SDS011;23119;51.842;-2.230;2023-06-24T14:35:49;1.95;;;0.98;;
37221;SDS011;23119;51.842;-2.230;2023-06-24T14:38:18;2.72;;;0.60;;
37221;SDS011;23119;51.842;-2.230;2023-06-24T14:40:46;2.08;;;0.90;;
37221;SDS011;23119;51.842;-2.230;2023-06-24T14:43:17;2.25;;;1.23;;
37221;SDS011;23119;51.842;-2.230;2023-06-24T14:45:44;1.55;;;0.85;;
37221;SDS011;23119;51.842;-2.230;2023-06-24T14:48:09;1.55;;;0.70;;
37221;SDS011;23119;51.842;-2.230;2023-06-24T14:50:35;1.73;;;0.90;;
37221;SDS011;23119;51.842;-2.230;2023-06-24T14:53:03;2.20;;;0.82;;
37221;SDS011;23119;51.842;-2.230;2023-06-24T14:55:29;2.08;;;0.75;;
37221;SDS011;23119;51.842;-2.230;2023-06-24T14:57:55;2.75;;;0.75;;
37221;SDS011;23119;51.842;-2.230;2023-06-24T15:00:26;3.10;;;0.90;;
37221;SDS011;23119;51.842;-2.230;2023-06-24T15:02:52;1.50;;;0.65;;
37221;SDS011;23119;51.842;-2.230;2023-06-24T15:05:18;2.25;;;0.90;;
37221;SDS011;23119;51.842;-2.230;2023-06-24T15:07:44;3.45;;;0.80;;
37221;SDS011;23119;51.842;-2.230;2023-06-24T15:10:09;1.60;;;0.75;;
37221;SDS011;23119;51.842;-2.230;2023-06-24T15:12:38;2.38;;;0.90;;
37221;SDS011;23119;51.842;-2.230;2023-06-24T15:15:05;2.22;;;0.70;;
37221;SDS011;23119;51.842;-2.230;2023-06-24T15:17:31;3.15;;;0.80;;
37221;SDS011;23119;51.842;-2.230;2023-06-24T15:19:59;2.80;;;0.77;;